createdAt,value
2019-05-25T00:00:53.816Z,97224.88
2019-05-25T00:03:22.240Z,97222.72
2019-05-25T00:05:50.656Z,97222.36
2019-05-25T00:08:19.046Z,97215.64
2019-05-25T00:10:47.465Z,97215.28
2019-05-25T00:13:15.855Z,97217.66
2019-05-25T00:15:44.306Z,97217.44
2019-05-25T00:18:12.699Z,97217.25
2019-05-25T00:20:41.089Z,97217.19
2019-05-25T00:23:09.484Z,97224.80
2019-05-25T00:25:37.880Z,97210.91
2019-05-25T00:28:06.260Z,97213.45
2019-05-25T00:30:34.643Z,97212.23
2019-05-25T00:33:03.036Z,97209.11
2019-05-25T00:35:31.429Z,97211.32
2019-05-25T00:37:59.861Z,97210.60
2019-05-25T00:40:28.265Z,97207.09
2019-05-25T00:42:56.682Z,97213.37
2019-05-25T00:45:25.108Z,97210.84
2019-05-25T00:47:53.873Z,97210.41
2019-05-25T00:50:22.262Z,97216.05
2019-05-25T00:52:50.667Z,97216.44
2019-05-25T00:55:19.086Z,97216.36
2019-05-25T00:57:47.532Z,97213.53
2019-05-25T01:00:17.464Z,97210.57
2019-05-25T01:02:45.897Z,97211.70
2019-05-25T01:05:14.373Z,97212.45
2019-05-25T01:07:42.857Z,97214.50
2019-05-25T01:10:11.580Z,97217.43
2019-05-25T01:12:39.966Z,97224.64
2019-05-25T01:15:09.198Z,97225.03
2019-05-25T01:17:37.655Z,97224.88
2019-05-25T01:20:10.844Z,97223.73
2019-05-25T01:22:39.668Z,97226.03
2019-05-25T01:25:08.786Z,97227.41
2019-05-25T01:27:37.174Z,97227.33
2019-05-25T01:30:11.181Z,97227.80
2019-05-25T01:32:39.671Z,97222.88
2019-05-25T01:35:08.401Z,97217.48
2019-05-25T01:37:36.789Z,97227.47
2019-05-25T01:40:20.612Z,97216.12
2019-05-25T01:42:48.994Z,97227.83
2019-05-25T01:45:17.531Z,97223.19
2019-05-25T01:47:45.913Z,97227.25
2019-05-25T01:50:14.429Z,97230.48
2019-05-25T01:52:42.816Z,97223.20
2019-05-25T01:55:11.271Z,97223.67
2019-05-25T01:57:39.660Z,97218.63
2019-05-25T02:00:09.262Z,97218.79
2019-05-25T02:02:37.643Z,97224.93
2019-05-25T02:05:06.770Z,97220.88
2019-05-25T02:07:35.162Z,97218.36
2019-05-25T02:10:06.195Z,97215.38
2019-05-25T02:12:34.580Z,97214.23
2019-05-25T02:15:03.462Z,97219.23
2019-05-25T02:17:31.814Z,97216.01
2019-05-25T02:20:00.209Z,97215.69
2019-05-25T02:22:28.592Z,97213.64
2019-05-25T02:24:56.985Z,97218.37
2019-05-25T02:27:26.299Z,97220.22
2019-05-25T02:29:54.685Z,97220.30
2019-05-25T02:32:23.078Z,97218.84
2019-05-25T02:34:51.469Z,97218.25
2019-05-25T02:37:19.860Z,97213.20
2019-05-25T02:39:48.257Z,97210.69
2019-05-25T02:42:16.642Z,97214.42
2019-05-25T02:44:45.042Z,97220.63
2019-05-25T02:47:13.431Z,97214.69
2019-05-25T02:49:41.837Z,97214.30
2019-05-25T02:52:10.220Z,97214.38
2019-05-25T02:54:38.627Z,97211.09
2019-05-25T02:57:07.017Z,97220.49
2019-05-25T02:59:35.432Z,97215.13
2019-05-25T03:02:03.961Z,97221.02
2019-05-25T03:04:32.363Z,97221.72
2019-05-25T03:07:02.095Z,97220.56
2019-05-25T03:09:32.631Z,97218.59
2019-05-25T03:12:01.357Z,97224.37
2019-05-25T03:14:29.813Z,97223.69
2019-05-25T03:16:58.210Z,97224.23
2019-05-25T03:19:26.597Z,97226.90
2019-05-25T03:21:55.050Z,97231.70
2019-05-25T03:24:23.453Z,97234.05
2019-05-25T03:26:51.838Z,97226.95
2019-05-25T03:29:20.238Z,97233.07
2019-05-25T03:31:48.636Z,97227.63
2019-05-25T03:34:17.032Z,97231.67
2019-05-25T03:36:45.423Z,97234.41
2019-05-25T03:39:13.809Z,97238.38
2019-05-25T03:41:42.211Z,97234.27
2019-05-25T03:44:10.599Z,97237.76
2019-05-25T03:46:38.992Z,97234.33
2019-05-25T03:49:07.387Z,97230.59
2019-05-25T03:51:35.776Z,97230.38
2019-05-25T03:54:04.165Z,97226.33
2019-05-25T03:56:32.552Z,97236.64
2019-05-25T03:59:00.947Z,97238.33
2019-05-25T04:01:29.425Z,97237.33
2019-05-25T04:03:57.823Z,97205.80
2019-05-25T04:06:26.217Z,97211.42
2019-05-25T04:08:54.605Z,97239.09
2019-05-25T04:11:23.000Z,97239.84
2019-05-25T04:13:51.390Z,97238.80
2019-05-25T04:16:19.785Z,97234.44
2019-05-25T04:18:48.191Z,97237.79
2019-05-25T04:21:16.591Z,97244.52
2019-05-25T04:23:44.976Z,97242.03
2019-05-25T04:26:21.944Z,97245.38
2019-05-25T04:28:43.492Z,97250.12
2019-05-25T04:31:11.884Z,97255.77
2019-05-25T04:33:40.272Z,97245.93
2019-05-25T04:36:08.727Z,97249.05
2019-05-25T04:38:37.143Z,97249.88
2019-05-25T04:41:05.538Z,97255.23
2019-05-25T04:43:33.935Z,97255.23
2019-05-25T04:46:02.422Z,97258.69
2019-05-25T04:48:30.807Z,97263.47
2019-05-25T04:50:59.213Z,97265.33
2019-05-25T04:53:27.596Z,97269.51
2019-05-25T04:55:55.986Z,97266.91
2019-05-25T04:58:24.381Z,97271.33
2019-05-25T05:00:52.783Z,97271.73
2019-05-25T05:03:21.175Z,97272.95
2019-05-25T05:05:49.564Z,97273.78
2019-05-25T05:08:17.958Z,97268.85
2019-05-25T05:10:46.347Z,97276.56
2019-05-25T05:13:14.743Z,97269.77
2019-05-25T05:15:43.146Z,97268.89
2019-05-25T05:18:11.603Z,97264.50
2019-05-25T05:20:39.943Z,97265.58
2019-05-25T05:23:08.332Z,97259.13
2019-05-25T05:25:36.740Z,97256.10
2019-05-25T05:28:05.120Z,97255.36
2019-05-25T05:30:34.659Z,97262.72
2019-05-25T05:33:03.193Z,97255.89
2019-05-25T05:35:33.329Z,97259.35
2019-05-25T05:38:04.990Z,97258.08
2019-05-25T05:40:34.227Z,97256.76
2019-05-25T05:43:05.679Z,97264.37
2019-05-25T05:45:35.910Z,97264.85
2019-05-25T05:48:04.801Z,97270.32
2019-05-25T05:50:35.162Z,97271.94
2019-05-25T05:53:03.844Z,97270.84
2019-05-25T05:55:32.573Z,97270.11
2019-05-25T05:58:02.376Z,97277.58
2019-05-25T06:00:30.940Z,97282.09
2019-05-25T06:02:59.335Z,97279.03
2019-05-25T06:05:27.732Z,97276.92
2019-05-25T06:07:56.125Z,97277.97
2019-05-25T06:10:24.529Z,97282.25
2019-05-25T06:12:52.927Z,97286.09
2019-05-25T06:15:22.326Z,97286.53
2019-05-25T06:17:50.744Z,97280.27
2019-05-25T06:20:19.111Z,97287.52
2019-05-25T06:22:47.505Z,97282.48
2019-05-25T06:25:16.340Z,97281.95
2019-05-25T06:27:44.737Z,97262.20
2019-05-25T06:30:13.365Z,97293.22
2019-05-25T06:32:41.769Z,97298.34
2019-05-25T06:35:11.093Z,97290.77
2019-05-25T06:37:39.484Z,97290.76
2019-05-25T06:40:09.121Z,97287.77
2019-05-25T06:42:37.501Z,97288.40
2019-05-25T06:45:08.212Z,97292.84
2019-05-25T06:47:36.672Z,97291.66
2019-05-25T06:50:07.459Z,97291.83
2019-05-25T06:52:35.874Z,97287.34
2019-05-25T06:55:08.633Z,97259.09
2019-05-25T06:57:42.981Z,97298.70
2019-05-25T07:00:08.218Z,97300.22
2019-05-25T07:02:36.678Z,97306.18
2019-05-25T07:05:08.453Z,97298.11
2019-05-25T07:07:37.025Z,97303.53
2019-05-25T07:10:07.467Z,97308.00
2019-05-25T07:12:35.848Z,97308.00
2019-05-25T07:15:07.383Z,97307.68
2019-05-25T07:17:35.771Z,97306.48
2019-05-25T07:20:06.504Z,97304.59
2019-05-25T07:22:34.906Z,97305.96
2019-05-25T07:25:04.264Z,97303.23
2019-05-25T07:27:32.657Z,97310.02
2019-05-25T07:30:01.059Z,97307.66
2019-05-25T07:32:29.439Z,97311.86
2019-05-25T07:34:57.835Z,97309.66
2019-05-25T07:37:26.227Z,97309.55
2019-05-25T07:39:54.625Z,97307.16
2019-05-25T07:42:23.021Z,97308.92
2019-05-25T07:44:51.413Z,97304.09
2019-05-25T07:47:19.814Z,97300.89
2019-05-25T07:49:48.195Z,97303.64
2019-05-25T07:52:16.583Z,97300.56
2019-05-25T07:54:45.002Z,97297.47
2019-05-25T07:57:13.413Z,97307.01
2019-05-25T07:59:41.805Z,97302.08
2019-05-25T08:02:10.203Z,97300.89
2019-05-25T08:04:38.608Z,97304.97
2019-05-25T08:07:07.002Z,97306.27
2019-05-25T08:09:35.435Z,97304.32
2019-05-25T08:12:03.997Z,97310.44
2019-05-25T08:14:32.390Z,97310.25
2019-05-25T08:17:00.809Z,97312.61
2019-05-25T08:19:29.196Z,97313.13
2019-05-25T08:21:57.589Z,97312.91
2019-05-25T08:24:25.980Z,97314.70
2019-05-25T08:26:54.371Z,97313.31
2019-05-25T08:29:22.762Z,97316.52
2019-05-25T08:31:51.158Z,97316.52
2019-05-25T08:34:20.471Z,97316.31
2019-05-25T08:36:48.866Z,97318.72
2019-05-25T08:39:17.268Z,97303.81
2019-05-25T08:41:45.814Z,97323.69
2019-05-25T08:44:14.257Z,97324.00
2019-05-25T08:46:42.647Z,97320.88
2019-05-25T08:49:11.036Z,97324.15
2019-05-25T08:51:39.436Z,97318.70
2019-05-25T08:54:07.826Z,97316.36
2019-05-25T08:56:36.215Z,97319.38
2019-05-25T08:59:04.687Z,97307.92
2019-05-25T09:01:33.142Z,97308.08
2019-05-25T09:04:01.597Z,97310.95
2019-05-25T09:06:29.990Z,97311.03
2019-05-25T09:08:58.371Z,97314.66
2019-05-25T09:11:26.762Z,97311.77
2019-05-25T09:13:55.147Z,97311.77
2019-05-25T09:16:23.588Z,97312.59
2019-05-25T09:18:51.944Z,97314.02
2019-05-25T09:21:20.332Z,97312.29
2019-05-25T09:23:48.988Z,97311.72
2019-05-25T09:26:17.381Z,97311.83
2019-05-25T09:28:45.769Z,97318.53
2019-05-25T09:31:14.274Z,97317.24
2019-05-25T09:33:42.741Z,97313.06
2019-05-25T09:36:11.123Z,97308.68
2019-05-25T09:38:43.120Z,97299.42
2019-05-25T09:41:09.632Z,97302.75
2019-05-25T09:43:38.016Z,97299.87
2019-05-25T09:46:06.407Z,97299.84
2019-05-25T09:48:37.948Z,97297.92
2019-05-25T09:51:04.930Z,97295.76
2019-05-25T09:53:33.307Z,97291.57
2019-05-25T09:56:01.690Z,97274.52
2019-05-25T09:58:30.080Z,97269.38
2019-05-25T10:00:58.488Z,97293.46
2019-05-25T10:03:26.867Z,97294.87
2019-05-25T10:05:55.311Z,97287.62
2019-05-25T10:08:23.696Z,97288.41
2019-05-25T10:10:52.085Z,97287.78
2019-05-25T10:13:20.514Z,97284.32
2019-05-25T10:15:48.900Z,97287.98
2019-05-25T10:18:17.311Z,97281.16
2019-05-25T10:20:46.614Z,97280.06
2019-05-25T10:23:15.008Z,97278.58
2019-05-25T10:25:43.396Z,97272.92
2019-05-25T10:28:11.782Z,97272.13
2019-05-25T10:30:40.170Z,97270.30
2019-05-25T10:33:08.557Z,97273.73
2019-05-25T10:35:36.936Z,97267.53
2019-05-25T10:38:05.416Z,97270.66
2019-05-25T10:40:33.810Z,97270.14
2019-05-25T10:43:03.109Z,97265.45
2019-05-25T10:45:31.504Z,97265.63
2019-05-25T10:47:59.953Z,97262.47
2019-05-25T10:50:28.354Z,97264.32
2019-05-25T10:52:56.770Z,97251.58
2019-05-25T10:55:25.198Z,97249.37
2019-05-25T10:57:53.601Z,97252.44
2019-05-25T11:00:22.427Z,97252.49
2019-05-25T11:02:50.866Z,97252.29
2019-05-25T11:05:19.621Z,97247.17
2019-05-25T11:07:48.019Z,97242.55
2019-05-25T11:10:17.015Z,97239.23
2019-05-25T11:12:45.413Z,97232.27
2019-05-25T11:15:14.303Z,97235.68
2019-05-25T11:17:42.695Z,97239.42
2019-05-25T11:20:11.942Z,97233.87
2019-05-25T11:22:40.367Z,97234.31
2019-05-25T11:25:09.715Z,97232.64
2019-05-25T11:27:38.147Z,97232.41
2019-05-25T11:30:09.854Z,97234.92
2019-05-25T11:32:38.274Z,97241.37
2019-05-25T11:35:08.389Z,97237.23
2019-05-25T11:37:36.777Z,97238.46
2019-05-25T11:40:07.665Z,97235.95
2019-05-25T11:42:36.041Z,97232.63
2019-05-25T11:45:06.579Z,97235.68
2019-05-25T11:47:34.973Z,97246.91
2019-05-25T11:50:04.711Z,97234.73
2019-05-25T11:52:33.165Z,97234.01
2019-05-25T11:55:01.574Z,97240.00
2019-05-25T11:57:29.939Z,97230.14
2019-05-25T11:59:58.321Z,97228.95
2019-05-25T12:02:26.714Z,97230.05
2019-05-25T12:04:55.112Z,97228.05
2019-05-25T12:07:23.495Z,97228.59
2019-05-25T12:09:51.877Z,97225.41
2019-05-25T12:12:20.260Z,97223.27
2019-05-25T12:14:48.654Z,97216.25
2019-05-25T12:17:17.035Z,97215.98
2019-05-25T12:19:45.429Z,97212.98
2019-05-25T12:22:13.843Z,97208.61
2019-05-25T12:24:43.152Z,97204.45
2019-05-25T12:27:11.562Z,97197.76
2019-05-25T12:29:39.966Z,97194.02
2019-05-25T12:32:08.339Z,97191.42
2019-05-25T12:34:36.734Z,97193.99
2019-05-25T12:37:05.183Z,97188.29
2019-05-25T12:39:34.053Z,97186.36
2019-05-25T12:42:02.439Z,97187.68
2019-05-25T12:44:34.268Z,97183.29
2019-05-25T12:47:01.003Z,97183.29
2019-05-25T12:49:29.332Z,97186.61
2019-05-25T12:51:57.720Z,97182.25
2019-05-25T12:54:26.103Z,97182.25
2019-05-25T12:56:54.489Z,97181.33
2019-05-25T12:59:22.879Z,97172.70
2019-05-25T13:01:51.259Z,97180.76
2019-05-25T13:04:19.641Z,97186.72
2019-05-25T13:06:48.026Z,97193.03
2019-05-25T13:09:16.410Z,97190.43
2019-05-25T13:11:44.807Z,97201.41
2019-05-25T13:14:14.952Z,97211.99
2019-05-25T13:16:43.306Z,97217.58
2019-05-25T13:19:11.699Z,97220.77
2019-05-25T13:21:40.086Z,97220.26
2019-05-25T13:24:08.470Z,97230.70
2019-05-25T13:26:39.525Z,97225.52
2019-05-25T13:29:07.922Z,97222.55
2019-05-25T13:31:36.298Z,97222.55
2019-05-25T13:34:04.682Z,97221.23
2019-05-25T13:36:33.071Z,97225.47
2019-05-25T13:39:01.449Z,97224.06
2019-05-25T13:41:29.837Z,97233.70
2019-05-25T13:43:58.217Z,97232.51
2019-05-25T13:46:26.654Z,97219.53
2019-05-25T13:48:55.072Z,97218.70
2019-05-25T13:51:23.465Z,97226.27
2019-05-25T13:53:51.810Z,97223.12
2019-05-25T13:56:20.195Z,97218.75
2019-05-25T13:58:48.650Z,97219.90
2019-05-25T14:01:27.926Z,97209.89
2019-05-25T14:03:47.154Z,97218.75
2019-05-25T14:06:16.530Z,97221.48
2019-05-25T14:08:44.911Z,97223.75
2019-05-25T14:11:13.298Z,97200.50
2019-05-25T14:13:41.714Z,97216.73
2019-05-25T14:16:10.104Z,97218.75
2019-05-25T14:18:38.557Z,97214.49
2019-05-25T14:21:06.941Z,97215.73
2019-05-25T14:23:35.564Z,97215.80
2019-05-25T14:26:04.985Z,97212.91
2019-05-25T14:28:33.385Z,97211.59
2019-05-25T14:31:01.769Z,97211.53
2019-05-25T14:33:30.165Z,97212.86
2019-05-25T14:35:58.549Z,97202.91
2019-05-25T14:38:26.949Z,97199.96
2019-05-25T14:40:55.321Z,97197.55
2019-05-25T14:43:23.715Z,97198.60
2019-05-25T14:45:53.395Z,97188.39
2019-05-25T14:48:21.978Z,97195.59
2019-05-25T14:50:50.361Z,97196.67
2019-05-25T14:53:18.745Z,97193.09
2019-05-25T14:55:47.137Z,97190.45
2019-05-25T14:58:15.517Z,97191.77
2019-05-25T15:00:44.150Z,97196.55
2019-05-25T15:03:12.572Z,97194.67
2019-05-25T15:05:40.957Z,97190.45
2019-05-25T15:08:09.413Z,97192.23
2019-05-25T15:10:37.789Z,97187.09
2019-05-25T15:13:06.319Z,97187.55
2019-05-25T15:15:34.697Z,97186.16
2019-05-25T15:18:03.157Z,97180.22
2019-05-25T15:20:31.542Z,97185.36
2019-05-25T15:22:59.957Z,97177.19
2019-05-25T15:25:28.351Z,97180.54
2019-05-25T15:27:57.290Z,97180.59
2019-05-25T15:30:25.955Z,97179.28
2019-05-25T15:32:54.406Z,97186.41
2019-05-25T15:35:22.789Z,97189.67
2019-05-25T15:37:51.169Z,97188.27
2019-05-25T15:40:19.696Z,97193.81
2019-05-25T15:42:48.105Z,97183.00
2019-05-25T15:45:16.623Z,97183.00
2019-05-25T15:47:45.098Z,97178.23
2019-05-25T15:50:15.607Z,97183.78
2019-05-25T15:52:44.001Z,97185.95
2019-05-25T15:55:12.449Z,97153.86
2019-05-25T15:57:40.833Z,97174.63
2019-05-25T16:00:14.344Z,97179.18
2019-05-25T16:02:42.907Z,97175.34
2019-05-25T16:05:11.721Z,97174.53
2019-05-25T16:07:43.160Z,97175.84
2019-05-25T16:10:11.774Z,97171.53
2019-05-25T16:12:40.182Z,97183.06
2019-05-25T16:15:09.599Z,97184.98
2019-05-25T16:17:38.634Z,97187.69
2019-05-25T16:20:07.451Z,97195.72
2019-05-25T16:22:35.842Z,97189.20
2019-05-25T16:25:06.462Z,97194.38
2019-05-25T16:27:34.854Z,97192.59
2019-05-25T16:30:04.209Z,97195.63
2019-05-25T16:32:32.607Z,97196.34
2019-05-25T16:35:01.009Z,97200.08
2019-05-25T16:37:29.471Z,97208.12
2019-05-25T16:39:57.855Z,97201.33
2019-05-25T16:42:26.244Z,97211.69
2019-05-25T16:44:54.622Z,97216.02
2019-05-25T16:47:23.027Z,97215.48
2019-05-25T16:49:51.432Z,97218.22
2019-05-25T16:52:19.843Z,97215.42
2019-05-25T16:54:48.241Z,97220.35
2019-05-25T16:57:16.629Z,97220.94
2019-05-25T16:59:45.008Z,97222.62
2019-05-25T17:02:13.391Z,97225.88
2019-05-25T17:04:41.777Z,97219.76
2019-05-25T17:07:10.171Z,97225.25
2019-05-25T17:09:38.571Z,97235.39
2019-05-25T17:12:06.944Z,97237.66
2019-05-25T17:14:35.326Z,97234.29
2019-05-25T17:17:03.780Z,97236.30
2019-05-25T17:19:32.162Z,97241.19
2019-05-25T17:22:00.564Z,97246.51
2019-05-25T17:24:28.979Z,97251.22
2019-05-25T17:26:57.340Z,97247.19
2019-05-25T17:29:25.723Z,97254.03
2019-05-25T17:31:54.107Z,97257.01
2019-05-25T17:34:22.493Z,97256.42
2019-05-25T17:36:50.892Z,97259.51
2019-05-25T17:39:19.283Z,97256.19
2019-05-25T17:41:47.699Z,97263.46
2019-05-25T17:44:16.084Z,97271.80
2019-05-25T17:46:44.464Z,97267.61
2019-05-25T17:49:12.918Z,97280.13
2019-05-25T17:51:41.336Z,97272.70
2019-05-25T17:54:09.717Z,97276.63
2019-05-25T17:56:39.381Z,97270.31
2019-05-25T17:59:07.750Z,97268.03
2019-05-25T18:01:36.137Z,97268.03
2019-05-25T18:04:07.154Z,97281.03
2019-05-25T18:06:34.808Z,97281.61
2019-05-25T18:09:03.203Z,97286.00
2019-05-25T18:11:31.590Z,97282.29
2019-05-25T18:14:00.007Z,97282.29
2019-05-25T18:16:28.386Z,97282.63
2019-05-25T18:18:56.772Z,97290.16
2019-05-25T18:21:25.154Z,97287.50
2019-05-25T18:23:53.565Z,97275.33
2019-05-25T18:26:21.953Z,97275.33
2019-05-25T18:28:50.348Z,97287.87
2019-05-25T18:31:18.733Z,97283.80
2019-05-25T18:33:47.113Z,97283.27
2019-05-25T18:36:15.499Z,97286.63
2019-05-25T18:38:43.882Z,97279.47
2019-05-25T18:41:12.281Z,97279.47
2019-05-25T18:43:40.665Z,97286.58
2019-05-25T18:46:09.048Z,97289.41
2019-05-25T18:48:37.430Z,97295.97
2019-05-25T18:51:05.821Z,97300.70
2019-05-25T18:53:34.953Z,97293.52
2019-05-25T18:56:03.364Z,97297.66
2019-05-25T18:58:31.719Z,97297.88
2019-05-25T19:01:00.098Z,97301.42
2019-05-25T19:03:28.482Z,97310.91
2019-05-25T19:05:56.866Z,97312.81
2019-05-25T19:08:25.249Z,97311.13
2019-05-25T19:10:53.698Z,97306.69
2019-05-25T19:13:22.096Z,97308.30
2019-05-25T19:15:50.471Z,97312.38
2019-05-25T19:18:18.850Z,97314.08
2019-05-25T19:20:47.244Z,97317.70
2019-05-25T19:23:15.639Z,97321.42
2019-05-25T19:25:44.122Z,97321.84
2019-05-25T19:28:12.482Z,97325.45
2019-05-25T19:30:40.866Z,97325.45
2019-05-25T19:33:09.255Z,97324.80
2019-05-25T19:35:37.688Z,97325.87
2019-05-25T19:38:06.076Z,97330.00
2019-05-25T19:40:34.585Z,97336.54
2019-05-25T19:43:02.958Z,97341.05
2019-05-25T19:45:32.874Z,97345.48
2019-05-25T19:48:01.414Z,97344.48
2019-05-25T19:50:29.813Z,97312.41
2019-05-25T19:52:58.213Z,97340.58
2019-05-25T19:55:26.621Z,97334.23
2019-05-25T19:57:55.020Z,97339.47
2019-05-25T20:00:23.651Z,97342.09
2019-05-25T20:02:52.038Z,97344.17
2019-05-25T20:05:20.563Z,97349.70
2019-05-25T20:07:48.946Z,97349.66
2019-05-25T20:10:17.989Z,97353.02
2019-05-25T20:12:46.722Z,97352.95
2019-05-25T20:15:15.330Z,97361.30
2019-05-25T20:17:43.742Z,97359.42
2019-05-25T20:20:12.358Z,97366.50
2019-05-25T20:22:40.743Z,97364.66
2019-05-25T20:25:09.200Z,97367.11
2019-05-25T20:27:37.582Z,97366.00
2019-05-25T20:30:09.494Z,97363.48
2019-05-25T20:32:37.888Z,97374.13
2019-05-25T20:35:07.214Z,97376.45
2019-05-25T20:37:35.598Z,97372.34
2019-05-25T20:40:07.822Z,97370.69
2019-05-25T20:42:36.342Z,97377.79
2019-05-25T20:45:07.064Z,97370.69
2019-05-25T20:47:35.479Z,97368.10
2019-05-25T20:50:05.844Z,97378.45
2019-05-25T20:52:34.370Z,97378.73
2019-05-25T20:55:02.786Z,97389.02
2019-05-25T20:57:32.080Z,97388.44
2019-05-25T21:00:00.500Z,97389.66
2019-05-25T21:02:28.897Z,97396.67
2019-05-25T21:04:57.266Z,97397.77
2019-05-25T21:07:25.650Z,97394.97
2019-05-25T21:09:54.038Z,97399.83
2019-05-25T21:12:22.503Z,97394.77
2019-05-25T21:14:50.887Z,97396.45
2019-05-25T21:17:19.274Z,97395.89
2019-05-25T21:19:53.625Z,97400.16
2019-05-25T21:22:22.054Z,97395.92
2019-05-25T21:24:51.303Z,97399.19
2019-05-25T21:27:19.695Z,97400.85
2019-05-25T21:29:48.078Z,97402.16
2019-05-25T21:32:16.495Z,97406.25
2019-05-25T21:34:44.910Z,97406.90
2019-05-25T21:37:13.258Z,97406.25
2019-05-25T21:39:41.648Z,97410.34
2019-05-25T21:42:10.018Z,97409.69
2019-05-25T21:44:38.400Z,97410.21
2019-05-25T21:47:06.784Z,97417.20
2019-05-25T21:49:35.163Z,97415.52
2019-05-25T21:52:03.837Z,97416.47
2019-05-25T21:54:32.220Z,97420.55
2019-05-25T21:57:00.608Z,97412.91
2019-05-25T21:59:32.479Z,97412.69
2019-05-25T22:01:59.138Z,97416.50
2019-05-25T22:04:27.523Z,97421.98
2019-05-25T22:06:55.967Z,97418.80
2019-05-25T22:09:24.348Z,97426.88
2019-05-25T22:11:52.726Z,97421.14
2019-05-25T22:14:21.106Z,97424.70
2019-05-25T22:16:49.493Z,97425.78
2019-05-25T22:19:17.894Z,97429.67
2019-05-25T22:21:46.453Z,97426.38
2019-05-25T22:24:14.827Z,97427.18
2019-05-25T22:26:43.223Z,97430.51
2019-05-25T22:29:11.605Z,97430.45
2019-05-25T22:31:39.987Z,97433.61
2019-05-25T22:34:08.384Z,97439.48
2019-05-25T22:36:40.709Z,97442.56
2019-05-25T22:39:08.205Z,97445.72
2019-05-25T22:41:36.577Z,97454.03
2019-05-25T22:44:06.012Z,97452.20
2019-05-25T22:46:34.399Z,97445.66
2019-05-25T22:49:02.880Z,97448.02
2019-05-25T22:51:31.259Z,97450.32
2019-05-25T22:53:59.648Z,97450.79
2019-05-25T22:56:28.031Z,97454.30
2019-05-25T22:58:56.418Z,97450.23
2019-05-25T23:01:24.809Z,97455.52
2019-05-25T23:03:53.266Z,97450.40
2019-05-25T23:06:21.644Z,97451.18
2019-05-25T23:08:50.099Z,97448.94
2019-05-25T23:11:18.482Z,97448.58
2019-05-25T23:13:46.871Z,97447.72
2019-05-25T23:16:15.265Z,97451.27
2019-05-25T23:18:43.658Z,97450.40
2019-05-25T23:21:12.034Z,97447.75
2019-05-25T23:23:40.424Z,97448.30
2019-05-25T23:26:08.807Z,97453.43
2019-05-25T23:28:37.190Z,97450.75
2019-05-25T23:31:05.579Z,97446.69
2019-05-25T23:33:33.981Z,97449.45
2019-05-25T23:36:02.362Z,97443.84
2019-05-25T23:38:30.747Z,97443.84
2019-05-25T23:40:59.131Z,97445.54
2019-05-25T23:43:27.521Z,97448.34
2019-05-25T23:45:55.901Z,97443.73
2019-05-25T23:48:24.295Z,97444.95
2019-05-25T23:50:52.682Z,97444.28
2019-05-25T23:53:21.085Z,97447.44
2019-05-25T23:55:49.468Z,97443.14
2019-05-25T23:58:17.862Z,97442.78
